Time;durP1;ratioP1;P1;durP2;ratioP2;P2;SDS_P1;SDS_P2;PMS_P1;PMS_P2;Temp;Humidity;BMP_temperature;BMP_pressure;BME280_temperature;BME280_humidity;BME280_pressure;Samples;Min_cycle;Max_cycle;Signal;HPM_P1;HPM_P2
2020/12/25 00:00:14;;;;;;;1.15;0.90;;;3.10;99.90;;;;;;4976865;28;20039;-75
2020/12/25 00:02:40;;;;;;;1.00;0.90;;;3.10;99.90;;;;;;4973586;28;20038;-75
2020/12/25 00:05:06;;;;;;;1.65;0.88;;;3.00;99.90;;;;;;4970473;28;20031;-75
2020/12/25 00:07:31;;;;;;;1.27;0.80;;;3.10;99.90;;;;;;4968576;28;20043;-75
2020/12/25 00:09:57;;;;;;;1.50;1.00;;;3.00;99.90;;;;;;4950806;28;20032;-75
2020/12/25 00:12:23;;;;;;;1.35;1.00;;;3.00;99.90;;;;;;4970749;28;20042;-75
2020/12/25 00:14:48;;;;;;;1.35;1.00;;;3.00;99.90;;;;;;4970980;28;20449;-75
2020/12/25 00:17:14;;;;;;;0.82;0.75;;;3.00;99.90;;;;;;4960402;28;20110;-75
2020/12/25 00:19:40;;;;;;;0.65;0.65;;;3.00;99.90;;;;;;4968965;28;20045;-75
2020/12/25 00:22:06;;;;;;;0.85;0.70;;;3.00;99.90;;;;;;4975922;28;20026;-75
2020/12/25 00:24:32;;;;;;;1.17;1.00;;;3.00;99.90;;;;;;4977982;28;20038;-75
2020/12/25 00:26:58;;;;;;;1.48;0.93;;;3.00;99.90;;;;;;4986313;28;20462;-75
2020/12/25 00:29:24;;;;;;;1.00;0.70;;;3.00;99.90;;;;;;4970943;28;20031;-75
2020/12/25 00:31:49;;;;;;;0.80;0.65;;;3.00;99.90;;;;;;4971170;28;20081;-75
2020/12/25 00:34:15;;;;;;;1.27;1.00;;;3.00;99.90;;;;;;4979665;28;20030;-75
2020/12/25 00:36:43;;;;;;;1.77;1.17;;;3.00;99.90;;;;;;4955648;29;20286;-75
2020/12/25 00:39:11;;;;;;;0.60;0.60;;;3.10;99.90;;;;;;4969816;28;20038;-75
2020/12/25 00:41:45;;;;;;;1.52;1.10;;;3.00;99.90;;;;;;4974037;28;20030;-76
2020/12/25 00:44:13;;;;;;;0.60;0.50;;;3.10;99.90;;;;;;4974507;28;20480;-75
2020/12/25 00:46:40;;;;;;;1.30;1.00;;;3.10;99.90;;;;;;4974658;28;20038;-75
2020/12/25 00:49:06;;;;;;;1.60;0.93;;;3.10;99.90;;;;;;4974361;28;20102;-75
2020/12/25 00:51:32;;;;;;;1.02;0.85;;;3.10;99.90;;;;;;4970337;28;20035;-75
2020/12/25 00:53:58;;;;;;;1.08;0.90;;;3.10;99.90;;;;;;4982739;28;20033;-75
2020/12/25 00:56:38;;;;;;;1.15;0.98;;;3.10;99.90;;;;;;4977664;28;20027;-75
2020/12/25 00:59:04;;;;;;;1.48;1.00;;;3.10;99.90;;;;;;4973982;28;20187;-75
2020/12/25 01:01:30;;;;;;;2.38;1.40;;;3.10;99.90;;;;;;4973064;28;20451;-75
2020/12/25 01:03:55;;;;;;;2.33;1.35;;;3.10;99.90;;;;;;4971344;28;20134;-75
2020/12/25 01:06:21;;;;;;;1.27;1.10;;;3.10;99.90;;;;;;4972214;28;20035;-76
2020/12/25 01:08:49;;;;;;;1.58;1.02;;;3.10;99.90;;;;;;4966796;28;20023;-76
2020/12/25 01:11:18;;;;;;;1.80;1.58;;;3.10;99.90;;;;;;4971076;28;20590;-76
2020/12/25 01:13:44;;;;;;;1.92;1.73;;;3.10;99.90;;;;;;4974034;28;20756;-76
2020/12/25 01:16:18;;;;;;;1.65;1.42;;;3.00;99.90;;;;;;4959756;28;20056;-75
2020/12/25 01:18:46;;;;;;;2.10;1.30;;;3.00;99.90;;;;;;4953269;28;20054;-75
2020/12/25 01:21:12;;;;;;;2.13;1.38;;;3.00;99.90;;;;;;4969847;28;20042;-75
2020/12/25 01:23:38;;;;;;;3.33;1.77;;;3.00;99.90;;;;;;4979804;28;20028;-75
2020/12/25 01:26:07;;;;;;;2.08;1.55;;;2.90;99.90;;;;;;4966737;28;20038;-75
2020/12/25 01:28:33;;;;;;;2.13;1.40;;;2.90;99.90;;;;;;4967183;28;20113;-75
2020/12/25 01:31:02;;;;;;;1.92;1.45;;;2.90;99.90;;;;;;4967884;28;20071;-75
2020/12/25 01:33:30;;;;;;;3.10;1.58;;;2.90;99.90;;;;;;4974754;28;20057;-75
2020/12/25 01:35:56;;;;;;;1.88;1.38;;;2.90;99.90;;;;;;4973223;28;20042;-75
2020/12/25 01:38:21;;;;;;;2.30;1.77;;;2.90;99.90;;;;;;4971344;28;20042;-75
2020/12/25 01:40:47;;;;;;;1.67;1.30;;;2.90;99.90;;;;;;4955412;28;20023;-75
2020/12/25 01:43:13;;;;;;;1.90;1.60;;;2.90;99.90;;;;;;4968161;28;20030;-75
2020/12/25 01:45:39;;;;;;;1.55;1.30;;;2.80;99.90;;;;;;4973071;28;20050;-75
2020/12/25 01:48:05;;;;;;;2.30;1.63;;;2.80;99.90;;;;;;4962670;28;20047;-75
2020/12/25 01:50:31;;;;;;;2.00;1.40;;;2.80;99.90;;;;;;4971469;28;20031;-75
2020/12/25 01:52:58;;;;;;;2.28;1.77;;;2.80;99.90;;;;;;4966497;28;20051;-75
2020/12/25 01:55:31;;;;;;;2.83;1.88;;;2.80;99.90;;;;;;4988273;28;20124;-75
2020/12/25 01:57:58;;;;;;;3.10;1.60;;;2.80;99.90;;;;;;4952034;29;20051;-75
2020/12/25 02:00:24;;;;;;;2.25;1.63;;;2.80;99.90;;;;;;4953951;28;20038;-75
2020/12/25 02:02:51;;;;;;;4.60;1.90;;;2.90;99.90;;;;;;4972839;28;20030;-75
2020/12/25 02:05:17;;;;;;;2.42;1.83;;;2.80;99.90;;;;;;4980181;28;20125;-75
2020/12/25 02:07:43;;;;;;;2.30;1.52;;;2.80;99.90;;;;;;4971395;28;20037;-75
2020/12/25 02:10:10;;;;;;;1.95;1.52;;;2.80;99.90;;;;;;4956310;28;20130;-75
2020/12/25 02:12:37;;;;;;;2.45;1.70;;;2.80;99.90;;;;;;4961687;28;20050;-75
2020/12/25 02:15:07;;;;;;;2.28;1.75;;;2.80;99.90;;;;;;4985368;28;20498;-75
2020/12/25 02:17:33;;;;;;;2.63;1.80;;;2.80;99.90;;;;;;4957294;28;20031;-75
2020/12/25 02:20:02;;;;;;;3.30;1.92;;;2.90;99.90;;;;;;4953002;28;20045;-75
2020/12/25 02:22:28;;;;;;;3.03;2.00;;;2.90;99.90;;;;;;4966642;28;20046;-75
2020/12/25 02:24:54;;;;;;;4.82;2.38;;;2.90;99.90;;;;;;4972524;28;20067;-75
2020/12/25 02:27:19;;;;;;;3.05;1.92;;;2.90;99.90;;;;;;4972086;28;20047;-75
2020/12/25 02:29:45;;;;;;;3.70;1.85;;;2.80;99.90;;;;;;4960180;28;20489;-75
2020/12/25 02:32:11;;;;;;;3.17;2.03;;;2.80;99.90;;;;;;4970543;28;20031;-75
2020/12/25 02:34:36;;;;;;;2.97;2.15;;;2.80;99.90;;;;;;4973364;28;20452;-75
2020/12/25 02:37:02;;;;;;;2.97;1.75;;;2.80;99.90;;;;;;4972357;28;20106;-75
2020/12/25 02:39:28;;;;;;;4.07;2.08;;;2.80;99.90;;;;;;4962533;28;20039;-75
2020/12/25 02:41:54;;;;;;;2.83;1.98;;;2.80;99.90;;;;;;4956235;28;20035;-75
2020/12/25 02:44:19;;;;;;;5.78;1.75;;;2.80;99.90;;;;;;4986229;28;20059;-75
2020/12/25 02:46:46;;;;;;;3.53;2.00;;;2.80;99.90;;;;;;4980624;28;20062;-75
2020/12/25 02:49:12;;;;;;;2.30;1.80;;;2.90;99.90;;;;;;4970937;28;20075;-75
2020/12/25 02:51:38;;;;;;;3.47;1.90;;;2.90;99.90;;;;;;4965157;28;20058;-75
2020/12/25 02:54:03;;;;;;;3.30;1.88;;;2.90;99.90;;;;;;4972596;28;20034;-75
2020/12/25 02:56:29;;;;;;;3.60;2.03;;;2.80;99.90;;;;;;4971427;28;20031;-75
2020/12/25 02:58:55;;;;;;;2.90;1.75;;;2.80;99.90;;;;;;4965067;28;20134;-75
2020/12/25 03:01:20;;;;;;;3.17;1.77;;;2.80;99.90;;;;;;4955855;28;20141;-75
2020/12/25 03:03:46;;;;;;;3.63;2.05;;;2.80;99.90;;;;;;4972318;28;20040;-75
2020/12/25 03:06:12;;;;;;;3.15;2.10;;;2.80;99.90;;;;;;4973002;28;20039;-75
2020/12/25 03:08:37;;;;;;;3.40;1.73;;;2.80;99.90;;;;;;4950852;29;20047;-75
2020/12/25 03:11:04;;;;;;;2.80;2.13;;;2.80;99.90;;;;;;4959554;28;20018;-75
2020/12/25 03:13:30;;;;;;;4.25;2.33;;;2.80;99.90;;;;;;4972212;28;20106;-75
2020/12/25 03:15:56;;;;;;;2.55;2.00;;;2.80;99.90;;;;;;4957915;28;20307;-75
2020/12/25 03:18:21;;;;;;;3.35;1.83;;;2.80;99.90;;;;;;4951855;29;20409;-75
2020/12/25 03:20:47;;;;;;;3.65;2.20;;;2.80;99.90;;;;;;4960629;28;20105;-75
2020/12/25 03:23:13;;;;;;;2.63;1.55;;;2.80;99.90;;;;;;4968756;28;20073;-75
2020/12/25 03:25:40;;;;;;;2.00;1.60;;;2.80;99.90;;;;;;4958720;28;20037;-75
2020/12/25 03:28:05;;;;;;;3.03;1.85;;;2.80;99.90;;;;;;4963482;28;20046;-75
2020/12/25 03:30:32;;;;;;;4.22;2.00;;;2.70;99.90;;;;;;4954024;28;20043;-75
2020/12/25 03:32:58;;;;;;;1.92;1.65;;;2.70;99.90;;;;;;4965498;28;20022;-75
2020/12/25 03:35:24;;;;;;;4.65;2.00;;;2.70;99.90;;;;;;4972345;28;20034;-75
2020/12/25 03:37:50;;;;;;;2.60;1.75;;;2.70;99.90;;;;;;4971170;28;20026;-75
2020/12/25 03:40:15;;;;;;;2.92;1.80;;;2.70;99.90;;;;;;4964039;28;20027;-75
2020/12/25 03:42:43;;;;;;;3.00;2.08;;;2.70;99.90;;;;;;4964436;28;20390;-75
2020/12/25 03:45:09;;;;;;;2.85;1.83;;;2.70;99.90;;;;;;4968073;28;20035;-75
2020/12/25 03:47:35;;;;;;;2.40;1.75;;;2.70;99.90;;;;;;4971924;28;20041;-75
2020/12/25 03:50:00;;;;;;;3.58;2.15;;;2.70;99.90;;;;;;4970459;28;20027;-75
2020/12/25 03:52:26;;;;;;;6.43;2.00;;;2.70;99.90;;;;;;4966286;28;20031;-75
2020/12/25 03:54:52;;;;;;;2.63;1.70;;;2.70;99.90;;;;;;4972974;28;20031;-75
2020/12/25 03:57:18;;;;;;;2.95;2.00;;;2.70;99.90;;;;;;4973016;28;20486;-76
2020/12/25 03:59:43;;;;;;;4.60;2.13;;;2.60;99.90;;;;;;4968574;28;20113;-75
2020/12/25 04:02:09;;;;;;;3.13;2.20;;;2.70;99.90;;;;;;4968881;28;20505;-75
2020/12/25 04:04:35;;;;;;;2.90;1.80;;;2.60;99.90;;;;;;4973476;28;20027;-75
2020/12/25 04:07:00;;;;;;;3.28;2.00;;;2.60;99.90;;;;;;4971343;28;20493;-75
2020/12/25 04:09:26;;;;;;;2.97;2.10;;;2.60;99.90;;;;;;4954786;29;20078;-76
2020/12/25 04:11:52;;;;;;;3.10;1.90;;;2.60;99.90;;;;;;4968789;28;20039;-76
2020/12/25 04:14:18;;;;;;;4.22;1.77;;;2.60;99.90;;;;;;4974796;28;20035;-75
2020/12/25 04:16:44;;;;;;;3.42;2.30;;;2.60;99.90;;;;;;4974989;28;20077;-75
2020/12/25 04:19:10;;;;;;;2.83;1.73;;;2.60;99.90;;;;;;4968250;28;20031;-75
2020/12/25 04:21:40;;;;;;;2.20;1.77;;;2.60;99.90;;;;;;4969306;28;20805;-75
2020/12/25 04:24:06;;;;;;;4.45;2.08;;;2.60;99.90;;;;;;4955240;28;20675;-75
2020/12/25 04:26:32;;;;;;;3.05;2.00;;;2.50;99.90;;;;;;4973115;28;20395;-75
2020/12/25 04:28:57;;;;;;;2.53;1.73;;;2.50;99.90;;;;;;4970429;28;20030;-75
2020/12/25 04:31:25;;;;;;;3.40;1.98;;;2.50;99.90;;;;;;4968691;28;20074;-75
2020/12/25 04:33:51;;;;;;;3.50;1.67;;;2.50;99.90;;;;;;4975016;28;20066;-76
2020/12/25 04:36:18;;;;;;;2.70;1.67;;;2.50;99.90;;;;;;4974392;28;20027;-76
2020/12/25 04:38:44;;;;;;;3.28;1.80;;;2.50;99.90;;;;;;4972233;28;20056;-74
2020/12/25 04:41:10;;;;;;;3.22;1.77;;;2.50;99.90;;;;;;4973832;28;20031;-74
2020/12/25 04:43:38;;;;;;;4.47;1.98;;;2.50;99.90;;;;;;4963628;28;20027;-74
2020/12/25 04:46:04;;;;;;;3.65;2.15;;;2.50;99.90;;;;;;4979139;28;20158;-74
2020/12/25 04:48:30;;;;;;;3.40;2.05;;;2.50;99.90;;;;;;4975197;28;20059;-75
2020/12/25 04:50:56;;;;;;;3.83;1.98;;;2.50;99.90;;;;;;4973072;28;20027;-75
2020/12/25 04:53:22;;;;;;;2.72;1.90;;;2.50;99.90;;;;;;4974618;28;20039;-76
2020/12/25 04:55:48;;;;;;;3.90;2.28;;;2.50;99.90;;;;;;4965480;28;20033;-75
2020/12/25 04:58:13;;;;;;;4.03;1.90;;;2.50;99.90;;;;;;4978556;28;20027;-76
2020/12/25 05:00:39;;;;;;;3.08;1.88;;;2.50;99.90;;;;;;4977722;28;20030;-75
2020/12/25 05:03:07;;;;;;;4.13;2.35;;;2.50;99.90;;;;;;4962906;28;20035;-75
2020/12/25 05:05:33;;;;;;;5.43;2.03;;;2.50;99.90;;;;;;4983899;28;20043;-75
2020/12/25 05:08:01;;;;;;;3.33;2.05;;;2.50;99.90;;;;;;4966988;28;20026;-75
2020/12/25 05:10:27;;;;;;;2.97;1.70;;;2.40;99.90;;;;;;4974479;28;20027;-75
2020/12/25 05:12:54;;;;;;;6.05;2.40;;;2.50;99.90;;;;;;4969680;28;20106;-75
2020/12/25 05:15:20;;;;;;;4.10;2.10;;;2.40;99.90;;;;;;4983351;28;20488;-75
2020/12/25 05:17:46;;;;;;;2.97;1.88;;;2.40;99.90;;;;;;4982055;28;20105;-76
2020/12/25 05:20:12;;;;;;;2.75;2.10;;;2.40;99.90;;;;;;4975053;28;20070;-76
2020/12/25 05:22:38;;;;;;;3.63;2.30;;;2.40;99.90;;;;;;4965004;28;20026;-76
2020/12/25 05:25:06;;;;;;;4.78;1.95;;;2.40;99.90;;;;;;4969184;28;20066;-75
2020/12/25 05:27:33;;;;;;;2.40;1.50;;;2.40;99.90;;;;;;4972830;28;20777;-75
2020/12/25 05:30:01;;;;;;;3.08;2.00;;;2.40;99.90;;;;;;4971509;28;20393;-76
2020/12/25 05:32:28;;;;;;;1.98;1.60;;;2.40;99.90;;;;;;4970865;28;20397;-75
2020/12/25 05:34:56;;;;;;;3.17;2.20;;;2.40;99.90;;;;;;4974187;28;20069;-76
2020/12/25 05:37:22;;;;;;;2.58;1.63;;;2.40;99.90;;;;;;4973936;28;20509;-76
2020/12/25 05:39:48;;;;;;;2.67;1.60;;;2.30;99.90;;;;;;4962152;28;20528;-76
2020/12/25 05:42:14;;;;;;;4.15;1.92;;;2.30;99.90;;;;;;4955398;28;20023;-75
2020/12/25 05:44:49;;;;;;;4.00;1.90;;;2.30;99.90;;;;;;4972984;28;20018;-75
2020/12/25 05:47:17;;;;;;;3.03;2.13;;;2.30;99.90;;;;;;4966893;28;20411;-75
2020/12/25 05:49:44;;;;;;;5.95;1.90;;;2.30;99.90;;;;;;4968325;28;20089;-75
2020/12/25 05:52:12;;;;;;;3.03;2.00;;;2.30;99.90;;;;;;4970360;28;20089;-75
2020/12/25 05:54:42;;;;;;;4.95;2.05;;;2.30;99.90;;;;;;4989415;28;20803;-75
2020/12/25 05:57:08;;;;;;;3.35;1.80;;;2.30;99.90;;;;;;4973532;28;20083;-75
2020/12/25 05:59:34;;;;;;;4.53;1.80;;;2.30;99.90;;;;;;4965643;28;20034;-75
2020/12/25 06:02:02;;;;;;;9.45;1.80;;;2.30;99.90;;;;;;4967797;28;20385;-75
2020/12/25 06:04:30;;;;;;;3.40;1.77;;;2.20;99.90;;;;;;4970318;28;20103;-75
2020/12/25 06:06:56;;;;;;;2.90;1.60;;;2.20;99.90;;;;;;4954535;28;20042;-75
2020/12/25 06:09:30;;;;;;;2.88;2.08;;;2.20;99.90;;;;;;4953943;28;20035;-75
2020/12/25 06:11:57;;;;;;;3.97;1.73;;;2.20;99.90;;;;;;4970466;28;20102;-75
2020/12/25 06:14:23;;;;;;;3.85;2.38;;;2.20;99.90;;;;;;4971786;28;20027;-75
2020/12/25 06:17:07;;;;;;;1.55;1.38;;;2.10;99.90;;;;;;4973294;28;20062;-75
2020/12/25 06:20:02;;;;;;;2.60;1.52;;;2.20;99.90;;;;;;4973026;28;20027;-75
2020/12/25 06:22:32;;;;;;;1.80;1.27;;;2.20;99.90;;;;;;4970125;28;20027;-75
2020/12/25 06:25:01;;;;;;;3.45;1.40;;;2.20;99.90;;;;;;4984340;28;20038;-75
2020/12/25 06:27:27;;;;;;;2.88;1.50;;;2.20;99.90;;;;;;4976269;28;20046;-78
2020/12/25 06:29:54;;;;;;;2.58;1.52;;;2.20;99.90;;;;;;4974157;28;20039;-78
2020/12/25 06:32:23;;;;;;;3.03;1.45;;;2.20;99.90;;;;;;4971436;28;20374;-78
2020/12/25 06:34:51;;;;;;;1.42;1.10;;;2.20;99.90;;;;;;4974988;28;20109;-78
2020/12/25 06:37:17;;;;;;;3.13;1.00;;;2.20;99.90;;;;;;4989878;28;20431;-76
2020/12/25 06:39:50;;;;;;;3.40;1.40;;;2.20;99.90;;;;;;4965202;28;20035;-75
2020/12/25 06:42:35;;;;;;;3.35;1.13;;;2.20;99.90;;;;;;4956818;28;20086;-75
2020/12/25 06:45:03;;;;;;;2.03;1.50;;;2.20;99.90;;;;;;4975469;28;20022;-75
2020/12/25 06:47:32;;;;;;;2.13;1.00;;;2.20;99.90;;;;;;4972768;28;20516;-75
2020/12/25 06:50:06;;;;;;;1.40;1.10;;;2.20;99.90;;;;;;4971308;28;20027;-76
2020/12/25 06:52:32;;;;;;;5.32;1.10;;;2.20;99.90;;;;;;4974523;28;20023;-76
2020/12/25 06:54:58;;;;;;;2.60;1.70;;;2.30;99.90;;;;;;4972312;28;20027;-76
2020/12/25 06:57:27;;;;;;;1.98;1.30;;;2.20;99.90;;;;;;4971343;28;20035;-75
2020/12/25 06:59:56;;;;;;;1.50;1.30;;;2.20;99.90;;;;;;4964630;28;20464;-76
2020/12/25 07:02:23;;;;;;;1.42;1.02;;;2.20;99.90;;;;;;4968284;28;20059;-76
2020/12/25 07:04:50;;;;;;;1.33;1.00;;;2.30;99.90;;;;;;4972335;28;20019;-76
2020/12/25 07:07:19;;;;;;;2.00;1.40;;;2.20;99.90;;;;;;4971795;28;20030;-76
2020/12/25 07:09:47;;;;;;;0.90;0.85;;;2.20;99.90;;;;;;4971631;28;20054;-76
2020/12/25 07:12:20;;;;;;;2.47;0.80;;;2.20;99.90;;;;;;4967054;28;20026;-76
2020/12/25 07:14:46;;;;;;;1.67;1.00;;;2.20;99.90;;;;;;4971269;28;20021;-76
2020/12/25 07:17:13;;;;;;;1.48;1.00;;;2.30;99.90;;;;;;4970889;28;20053;-76
2020/12/25 07:19:39;;;;;;;1.63;1.13;;;2.20;99.90;;;;;;4970059;28;20035;-76
2020/12/25 07:22:06;;;;;;;1.17;1.08;;;2.30;99.90;;;;;;4966020;28;20109;-76
2020/12/25 07:24:36;;;;;;;1.52;0.90;;;2.20;99.90;;;;;;4961745;28;20680;-76
2020/12/25 07:27:02;;;;;;;2.47;1.10;;;2.20;99.90;;;;;;4971450;28;20038;-76
2020/12/25 07:29:28;;;;;;;1.80;1.25;;;2.20;99.90;;;;;;4972653;28;20031;-76
2020/12/25 07:31:54;;;;;;;1.35;1.23;;;2.30;99.90;;;;;;4964892;28;20041;-76
2020/12/25 07:34:24;;;;;;;1.50;1.27;;;2.30;99.90;;;;;;4971466;28;20490;-76
2020/12/25 07:36:52;;;;;;;1.60;0.93;;;2.30;99.90;;;;;;4977628;28;20032;-76
2020/12/25 07:39:19;;;;;;;1.98;1.00;;;2.30;99.90;;;;;;4967659;28;20034;-76
2020/12/25 07:41:45;;;;;;;1.67;1.30;;;2.30;99.90;;;;;;4970317;28;20034;-76
2020/12/25 07:44:15;;;;;;;1.67;1.20;;;2.30;99.90;;;;;;4966271;28;20023;-76
2020/12/25 07:46:41;;;;;;;1.45;1.30;;;2.30;99.90;;;;;;4970386;28;20035;-76
2020/12/25 07:49:07;;;;;;;3.72;1.20;;;2.30;99.90;;;;;;4959719;28;20042;-76
2020/12/25 07:51:34;;;;;;;2.15;1.38;;;2.40;99.90;;;;;;4963803;28;20038;-76
2020/12/25 07:54:02;;;;;;;1.20;1.10;;;2.30;99.90;;;;;;4971286;28;20117;-76
2020/12/25 07:56:30;;;;;;;1.42;1.15;;;2.40;99.90;;;;;;4969264;28;20031;-76
2020/12/25 07:58:56;;;;;;;17.35;2.08;;;2.40;99.90;;;;;;4977242;28;20054;-76
2020/12/25 08:01:25;;;;;;;1.85;1.33;;;2.40;99.90;;;;;;4967726;28;20038;-76
2020/12/25 08:03:51;;;;;;;2.42;1.38;;;2.30;99.90;;;;;;4968787;28;20035;-76
2020/12/25 08:06:20;;;;;;;2.13;1.33;;;2.30;99.90;;;;;;4952738;28;20045;-76
2020/12/25 08:08:48;;;;;;;1.80;1.30;;;2.30;99.90;;;;;;4950924;28;20035;-76
2020/12/25 08:11:16;;;;;;;2.70;1.45;;;2.30;99.90;;;;;;4961121;28;20122;-75
2020/12/25 08:13:44;;;;;;;1.90;1.35;;;2.30;99.90;;;;;;4971408;28;20062;-76
2020/12/25 08:16:11;;;;;;;1.77;1.58;;;2.20;99.90;;;;;;4971457;28;20039;-76
2020/12/25 08:18:37;;;;;;;2.42;1.45;;;2.20;99.90;;;;;;4970054;28;20053;-76
2020/12/25 08:21:03;;;;;;;3.40;1.50;;;2.20;99.90;;;;;;4960764;28;20057;-76
2020/12/25 08:23:35;;;;;;;2.17;1.55;;;2.20;99.90;;;;;;4972350;28;20041;-76
2020/12/25 08:26:03;;;;;;;5.18;1.30;;;2.30;99.90;;;;;;4956655;28;20044;-76
2020/12/25 08:28:31;;;;;;;1.67;1.42;;;2.30;99.90;;;;;;4952477;28;20062;-76
2020/12/25 08:31:18;;;;;;;2.55;1.88;;;2.30;99.90;;;;;;4964504;28;20449;-76
2020/12/25 08:33:57;;;;;;;8.32;1.48;;;2.30;99.90;;;;;;4963507;28;20816;-76
2020/12/25 08:36:24;;;;;;;13.20;1.50;;;2.30;99.90;;;;;;4972124;28;20035;-75
2020/12/25 08:38:50;;;;;;;4.13;1.60;;;2.30;99.90;;;;;;4972350;28;20366;-76
2020/12/25 08:41:17;;;;;;;1.83;1.27;;;2.30;99.90;;;;;;4966063;28;20031;-76
2020/12/25 08:43:43;;;;;;;1.80;1.40;;;2.20;99.90;;;;;;4979899;28;20038;-76
2020/12/25 08:46:09;;;;;;;1.85;1.30;;;2.20;99.90;;;;;;4971249;28;20035;-76
2020/12/25 08:48:48;;;;;;;2.35;0.98;;;2.30;99.90;;;;;;4967978;28;20097;-76
2020/12/25 08:51:15;;;;;;;1.30;1.10;;;2.30;99.90;;;;;;4970163;28;20038;-76
2020/12/25 08:53:52;;;;;;;2.03;1.42;;;2.30;99.90;;;;;;4986533;23;20050;-78
2020/12/25 08:56:20;;;;;;;1.95;1.30;;;2.40;99.90;;;;;;4983499;28;20037;-78
2020/12/25 08:58:55;;;;;;;2.35;1.30;;;2.40;99.90;;;;;;4960445;28;20122;-78
2020/12/25 09:01:21;;;;;;;1.98;1.27;;;2.50;99.90;;;;;;4983718;28;20034;-78
2020/12/25 09:03:47;;;;;;;1.65;1.00;;;2.50;99.90;;;;;;4987840;28;20053;-78
2020/12/25 09:06:12;;;;;;;2.03;1.10;;;2.50;99.90;;;;;;4988038;28;20489;-78
2020/12/25 09:08:39;;;;;;;1.55;1.00;;;2.50;99.90;;;;;;4974431;28;20069;-78
2020/12/25 09:11:09;;;;;;;1.42;1.00;;;2.50;99.90;;;;;;4994570;28;20034;-79
2020/12/25 09:13:35;;;;;;;1.40;1.05;;;2.60;99.90;;;;;;4992140;28;20424;-77
2020/12/25 09:16:01;;;;;;;0.70;0.70;;;2.60;99.90;;;;;;4994789;28;20022;-78
2020/12/25 09:18:26;;;;;;;1.45;0.70;;;2.70;99.90;;;;;;4994526;28;20499;-78
2020/12/25 09:20:52;;;;;;;0.70;0.60;;;2.70;99.90;;;;;;4987149;28;20030;-79
2020/12/25 09:23:18;;;;;;;1.75;0.60;;;2.60;99.90;;;;;;4990662;28;20543;-79
2020/12/25 09:25:43;;;;;;;2.42;0.70;;;2.60;99.90;;;;;;4973520;28;20142;-79
2020/12/25 09:28:09;;;;;;;1.38;0.90;;;2.70;99.90;;;;;;4962199;28;20031;-79
2020/12/25 09:30:35;;;;;;;1.00;0.90;;;2.70;99.90;;;;;;4971459;28;20038;-78
2020/12/25 09:33:00;;;;;;;2.55;0.60;;;2.70;99.90;;;;;;4996552;28;20034;-79
2020/12/25 09:35:26;;;;;;;2.50;0.90;;;2.70;99.90;;;;;;4990236;28;20050;-79
2020/12/25 09:37:52;;;;;;;2.03;1.00;;;2.70;99.90;;;;;;4987019;28;20498;-79
2020/12/25 09:40:17;;;;;;;2.08;0.95;;;2.70;99.90;;;;;;4952009;28;20038;-79
2020/12/25 09:42:43;;;;;;;1.00;0.82;;;2.70;99.90;;;;;;4986535;28;20042;-79
2020/12/25 09:45:09;;;;;;;0.55;0.52;;;2.70;99.90;;;;;;4983005;28;21554;-79
2020/12/25 09:47:34;;;;;;;0.90;0.90;;;2.60;99.90;;;;;;4986875;28;20062;-78
2020/12/25 09:50:00;;;;;;;1.20;0.85;;;2.60;99.90;;;;;;4982091;28;20026;-79
2020/12/25 09:52:26;;;;;;;0.73;0.73;;;2.60;99.90;;;;;;4967284;28;20066;-79
2020/12/25 09:54:51;;;;;;;0.70;0.70;;;2.60;99.90;;;;;;4977805;28;20035;-80
2020/12/25 09:57:17;;;;;;;2.42;0.75;;;2.60;99.90;;;;;;4984797;28;20030;-79
2020/12/25 09:59:43;;;;;;;0.60;0.50;;;2.60;99.90;;;;;;4980560;28;20801;-79
2020/12/25 10:02:08;;;;;;;0.90;0.70;;;2.50;99.90;;;;;;4984266;28;20043;-79
2020/12/25 10:04:34;;;;;;;0.43;0.40;;;2.50;99.90;;;;;;4987999;28;20030;-79
2020/12/25 10:07:00;;;;;;;0.60;0.60;;;2.60;99.90;;;;;;4976651;28;20039;-80
2020/12/25 10:09:25;;;;;;;0.70;0.60;;;2.50;99.90;;;;;;4981622;28;20042;-79
2020/12/25 10:11:55;;;;;;;0.93;0.70;;;2.50;99.90;;;;;;4953048;28;20425;-79
2020/12/25 10:14:20;;;;;;;1.63;0.65;;;2.60;99.90;;;;;;4981732;28;20043;-79
2020/12/25 10:16:46;;;;;;;1.02;0.57;;;2.60;99.90;;;;;;4993245;28;20420;-79
2020/12/25 10:19:12;;;;;;;0.73;0.63;;;2.60;99.90;;;;;;5008009;28;20072;-79
2020/12/25 10:21:38;;;;;;;0.75;0.60;;;2.50;99.90;;;;;;4988065;28;20034;-78
2020/12/25 10:24:03;;;;;;;1.25;0.68;;;2.60;99.90;;;;;;4953310;28;20044;-78
2020/12/25 10:26:29;;;;;;;2.50;0.60;;;2.50;99.90;;;;;;4982191;28;20547;-79
2020/12/25 10:28:55;;;;;;;0.85;0.57;;;2.60;99.90;;;;;;4968929;28;20030;-79
2020/12/25 10:31:20;;;;;;;0.88;0.45;;;2.50;99.90;;;;;;4980915;28;20031;-77
2020/12/25 10:33:46;;;;;;;0.57;0.52;;;2.60;99.90;;;;;;4981058;28;20492;-78
2020/12/25 10:36:12;;;;;;;0.60;0.50;;;2.60;99.90;;;;;;4982821;28;20043;-79
2020/12/25 10:38:37;;;;;;;0.63;0.43;;;2.50;99.90;;;;;;4983695;28;20408;-78
2020/12/25 10:41:04;;;;;;;0.80;0.60;;;2.50;99.90;;;;;;4983461;28;20033;-79
2020/12/25 10:43:30;;;;;;;0.60;0.40;;;2.40;99.90;;;;;;4978890;28;20035;-79
2020/12/25 10:45:56;;;;;;;0.50;0.40;;;2.40;99.90;;;;;;4981417;28;20535;-79
2020/12/25 10:48:22;;;;;;;1.95;0.50;;;2.40;99.90;;;;;;4953987;28;20046;-78
2020/12/25 10:50:48;;;;;;;1.02;0.47;;;2.40;99.90;;;;;;5000534;28;20030;-78
2020/12/25 10:53:14;;;;;;;0.68;0.22;;;2.40;99.90;;;;;;4985797;28;20038;-78
2020/12/25 10:55:39;;;;;;;0.20;0.20;;;2.40;99.90;;;;;;4989253;28;20049;-78
2020/12/25 10:58:05;;;;;;;0.52;0.40;;;2.40;99.90;;;;;;4981956;28;20118;-78
2020/12/25 11:00:31;;;;;;;0.60;0.25;;;2.40;99.90;;;;;;4982417;28;20044;-78
2020/12/25 11:02:56;;;;;;;0.25;0.20;;;2.40;99.90;;;;;;4979072;28;20041;-79
2020/12/25 11:05:22;;;;;;;0.95;0.43;;;2.40;99.90;;;;;;4952692;28;20444;-77
2020/12/25 11:07:48;;;;;;;0.60;0.40;;;2.40;99.90;;;;;;4982552;28;20043;-79
2020/12/25 11:10:15;;;;;;;0.43;0.30;;;2.40;99.90;;;;;;4983760;28;20035;-78
2020/12/25 11:12:40;;;;;;;0.30;0.28;;;2.40;99.90;;;;;;4980082;28;20031;-79
2020/12/25 11:15:06;;;;;;;0.52;0.32;;;2.40;99.90;;;;;;4985505;28;20049;-78
2020/12/25 11:17:32;;;;;;;1.45;0.40;;;2.40;99.90;;;;;;4984260;28;20725;-79
2020/12/25 11:19:57;;;;;;;0.25;0.25;;;2.40;99.90;;;;;;4984856;28;20057;-79
2020/12/25 11:22:23;;;;;;;0.43;0.20;;;2.40;99.90;;;;;;4982252;28;20096;-79
2020/12/25 11:24:49;;;;;;;0.30;0.30;;;2.40;99.90;;;;;;4976240;28;20099;-79
2020/12/25 11:27:15;;;;;;;0.22;0.22;;;2.50;99.90;;;;;;4975926;28;20113;-79
2020/12/25 11:29:41;;;;;;;0.20;0.20;;;2.50;99.90;;;;;;4975806;28;20038;-79
2020/12/25 11:32:07;;;;;;;0.40;0.30;;;2.50;99.90;;;;;;4988181;28;20113;-79
2020/12/25 11:34:32;;;;;;;0.30;0.30;;;2.50;99.90;;;;;;4983862;28;20637;-78
2020/12/25 11:36:58;;;;;;;0.30;0.30;;;2.60;99.90;;;;;;4981119;28;20023;-79
2020/12/25 11:39:24;;;;;;;1.60;0.30;;;2.50;99.90;;;;;;4983234;28;20508;-77
2020/12/25 11:41:50;;;;;;;0.55;0.30;;;2.50;99.90;;;;;;4970559;28;20035;-78
2020/12/25 11:44:15;;;;;;;0.90;0.40;;;2.50;99.90;;;;;;4985217;28;20026;-77
2020/12/25 11:46:41;;;;;;;1.95;0.50;;;2.40;99.90;;;;;;4989390;28;20049;-78
2020/12/25 11:49:08;;;;;;;0.40;0.30;;;2.50;99.90;;;;;;4970879;28;20034;-78
2020/12/25 11:51:34;;;;;;;0.73;0.45;;;2.50;99.90;;;;;;4978012;28;20035;-78
2020/12/25 11:54:00;;;;;;;0.43;0.35;;;2.40;99.90;;;;;;4962024;28;20041;-79
2020/12/25 11:56:31;;;;;;;1.02;0.40;;;2.40;99.90;;;;;;4953079;28;20042;-78
2020/12/25 11:59:00;;;;;;;1.95;0.38;;;2.40;99.90;;;;;;4986320;28;20053;-78
2020/12/25 12:01:26;;;;;;;0.40;0.30;;;2.40;99.90;;;;;;4986331;28;20027;-78
2020/12/25 12:03:52;;;;;;;0.63;0.40;;;2.30;99.90;;;;;;4985262;28;20061;-79
2020/12/25 12:06:19;;;;;;;0.40;0.35;;;2.20;99.90;;;;;;4983540;28;20033;-79
2020/12/25 12:08:45;;;;;;;0.57;0.30;;;2.20;99.90;;;;;;4982912;28;20046;-78
2020/12/25 12:11:11;;;;;;;0.38;0.30;;;2.20;99.90;;;;;;4986151;28;20114;-78
2020/12/25 12:13:37;;;;;;;0.30;0.20;;;2.20;99.90;;;;;;4967163;28;20121;-78
2020/12/25 12:16:03;;;;;;;0.30;0.30;;;2.20;99.90;;;;;;4984892;28;20113;-78
2020/12/25 12:18:28;;;;;;;0.28;0.28;;;2.20;99.90;;;;;;4969583;28;20030;-78
2020/12/25 12:20:54;;;;;;;0.30;0.30;;;2.20;99.90;;;;;;4987324;28;20042;-78
2020/12/25 12:23:20;;;;;;;0.40;0.30;;;2.20;99.90;;;;;;4989864;28;20046;-78
2020/12/25 12:25:45;;;;;;;0.50;0.30;;;2.20;99.90;;;;;;4983043;28;20529;-78
2020/12/25 12:28:11;;;;;;;0.35;0.35;;;2.20;99.90;;;;;;4981594;28;20034;-77
2020/12/25 12:30:37;;;;;;;0.82;0.32;;;2.30;99.90;;;;;;4969884;28;20034;-79
2020/12/25 12:33:03;;;;;;;0.40;0.38;;;2.20;99.90;;;;;;4993357;28;20488;-78
2020/12/25 12:35:29;;;;;;;0.95;0.30;;;2.20;99.90;;;;;;4989451;28;20034;-79
2020/12/25 12:37:54;;;;;;;0.43;0.30;;;2.10;99.90;;;;;;4977517;28;20034;-78
2020/12/25 12:40:20;;;;;;;0.32;0.32;;;2.10;99.90;;;;;;4976744;28;20097;-78
2020/12/25 12:42:46;;;;;;;0.82;0.40;;;2.10;99.90;;;;;;4960802;28;20400;-78
2020/12/25 12:45:15;;;;;;;0.50;0.30;;;2.10;99.90;;;;;;4991373;28;20057;-78
2020/12/25 12:47:42;;;;;;;0.20;0.20;;;2.20;99.90;;;;;;4987217;28;20101;-78
2020/12/25 12:50:09;;;;;;;1.17;0.50;;;2.20;99.90;;;;;;4982567;28;20034;-77
2020/12/25 12:52:35;;;;;;;0.68;0.30;;;2.20;99.90;;;;;;4994314;28;20029;-78
2020/12/25 12:55:01;;;;;;;0.30;0.30;;;2.10;99.90;;;;;;4990973;28;20496;-78